sensor_id;sensor_type;location;lat;lon;timestamp;P1;durP1;ratioP1;P2;durP2;ratioP2
51048;SDS011;37084;55.228;36.450;2023-08-06T00:00:19;12.15;;;7.82;;
51048;SDS011;37084;55.228;36.450;2023-08-06T00:03:21;11.52;;;8.20;;
51048;SDS011;37084;55.228;36.450;2023-08-06T00:06:22;13.75;;;8.40;;
51048;SDS011;37084;55.228;36.450;2023-08-06T00:09:23;14.32;;;8.75;;
51048;SDS011;37084;55.228;36.450;2023-08-06T00:12:24;14.93;;;8.55;;
51048;SDS011;37084;55.228;36.450;2023-08-06T00:15:26;11.90;;;8.45;;
51048;SDS011;37084;55.228;36.450;2023-08-06T00:18:28;13.20;;;8.18;;
51048;SDS011;37084;55.228;36.450;2023-08-06T00:21:29;13.05;;;8.57;;
51048;SDS011;37084;55.228;36.450;2023-08-06T00:24:30;12.27;;;8.13;;
51048;SDS011;37084;55.228;36.450;2023-08-06T00:27:31;12.98;;;7.88;;
51048;SDS011;37084;55.228;36.450;2023-08-06T00:30:33;12.73;;;8.43;;
51048;SDS011;37084;55.228;36.450;2023-08-06T00:33:34;13.02;;;7.78;;
51048;SDS011;37084;55.228;36.450;2023-08-06T00:36:35;13.60;;;8.95;;
51048;SDS011;37084;55.228;36.450;2023-08-06T00:39:37;12.70;;;8.38;;
51048;SDS011;37084;55.228;36.450;2023-08-06T00:42:39;14.18;;;9.60;;
51048;SDS011;37084;55.228;36.450;2023-08-06T00:45:40;13.73;;;9.27;;
51048;SDS011;37084;55.228;36.450;2023-08-06T00:48:42;11.80;;;8.63;;
51048;SDS011;37084;55.228;36.450;2023-08-06T00:51:44;16.40;;;9.10;;
51048;SDS011;37084;55.228;36.450;2023-08-06T00:54:45;12.38;;;8.57;;
51048;SDS011;37084;55.228;36.450;2023-08-06T00:57:47;14.18;;;9.02;;
51048;SDS011;37084;55.228;36.450;2023-08-06T01:00:48;11.80;;;8.75;;
51048;SDS011;37084;55.228;36.450;2023-08-06T01:03:49;13.85;;;8.38;;
51048;SDS011;37084;55.228;36.450;2023-08-06T01:07:10;12.10;;;8.05;;
51048;SDS011;37084;55.228;36.450;2023-08-06T01:17:51;13.25;;;8.02;;
51048;SDS011;37084;55.228;36.450;2023-08-06T01:20:53;13.85;;;8.52;;
51048;SDS011;37084;55.228;36.450;2023-08-06T01:23:54;16.45;;;8.40;;
51048;SDS011;37084;55.228;36.450;2023-08-06T01:27:11;13.10;;;8.50;;
51048;SDS011;37084;55.228;36.450;2023-08-06T01:30:25;14.20;;;8.48;;
51048;SDS011;37084;55.228;36.450;2023-08-06T01:33:29;13.60;;;8.10;;
51048;SDS011;37084;55.228;36.450;2023-08-06T01:36:33;11.77;;;8.35;;
51048;SDS011;37084;55.228;36.450;2023-08-06T01:39:34;12.52;;;8.25;;
51048;SDS011;37084;55.228;36.450;2023-08-06T01:42:39;13.00;;;8.80;;
51048;SDS011;37084;55.228;36.450;2023-08-06T01:45:40;12.85;;;8.57;;
51048;SDS011;37084;55.228;36.450;2023-08-06T01:48:42;15.52;;;9.00;;
51048;SDS011;37084;55.228;36.450;2023-08-06T01:51:43;13.13;;;8.23;;
51048;SDS011;37084;55.228;36.450;2023-08-06T01:54:44;12.30;;;8.50;;
51048;SDS011;37084;55.228;36.450;2023-08-06T01:57:45;11.32;;;8.88;;
51048;SDS011;37084;55.228;36.450;2023-08-06T02:00:47;12.93;;;8.15;;
51048;SDS011;37084;55.228;36.450;2023-08-06T02:03:48;15.15;;;8.80;;
51048;SDS011;37084;55.228;36.450;2023-08-06T02:06:49;15.18;;;8.70;;
51048;SDS011;37084;55.228;36.450;2023-08-06T02:09:51;13.80;;;8.27;;
51048;SDS011;37084;55.228;36.450;2023-08-06T02:12:52;13.05;;;9.02;;
51048;SDS011;37084;55.228;36.450;2023-08-06T02:15:53;15.02;;;8.68;;
51048;SDS011;37084;55.228;36.450;2023-08-06T02:18:54;13.52;;;8.88;;
51048;SDS011;37084;55.228;36.450;2023-08-06T02:22:07;12.30;;;9.02;;
51048;SDS011;37084;55.228;36.450;2023-08-06T02:25:09;13.77;;;9.15;;
51048;SDS011;37084;55.228;36.450;2023-08-06T02:28:10;13.00;;;9.10;;
51048;SDS011;37084;55.228;36.450;2023-08-06T02:31:14;13.18;;;8.88;;
51048;SDS011;37084;55.228;36.450;2023-08-06T02:34:15;12.60;;;8.65;;
51048;SDS011;37084;55.228;36.450;2023-08-06T02:37:16;12.68;;;8.95;;
51048;SDS011;37084;55.228;36.450;2023-08-06T02:40:19;11.05;;;8.07;;
51048;SDS011;37084;55.228;36.450;2023-08-06T02:43:20;11.60;;;8.52;;
51048;SDS011;37084;55.228;36.450;2023-08-06T02:46:22;16.55;;;8.15;;
51048;SDS011;37084;55.228;36.450;2023-08-06T02:49:23;12.90;;;7.90;;
51048;SDS011;37084;55.228;36.450;2023-08-06T02:52:25;12.00;;;8.35;;
51048;SDS011;37084;55.228;36.450;2023-08-06T02:55:26;15.00;;;8.45;;
51048;SDS011;37084;55.228;36.450;2023-08-06T02:58:27;13.32;;;8.82;;
51048;SDS011;37084;55.228;36.450;2023-08-06T03:01:42;13.45;;;8.63;;
51048;SDS011;37084;55.228;36.450;2023-08-06T03:04:52;13.35;;;8.55;;
51048;SDS011;37084;55.228;36.450;2023-08-06T03:07:56;12.43;;;7.97;;
51048;SDS011;37084;55.228;36.450;2023-08-06T03:11:01;11.45;;;8.90;;
51048;SDS011;37084;55.228;36.450;2023-08-06T03:14:03;11.13;;;7.80;;
51048;SDS011;37084;55.228;36.450;2023-08-06T03:17:05;13.13;;;7.80;;
51048;SDS011;37084;55.228;36.450;2023-08-06T03:20:06;11.63;;;7.85;;
51048;SDS011;37084;55.228;36.450;2023-08-06T03:23:08;14.25;;;8.52;;
51048;SDS011;37084;55.228;36.450;2023-08-06T03:26:10;15.98;;;8.18;;
51048;SDS011;37084;55.228;36.450;2023-08-06T03:29:12;15.82;;;8.10;;
51048;SDS011;37084;55.228;36.450;2023-08-06T03:32:14;10.32;;;7.10;;
51048;SDS011;37084;55.228;36.450;2023-08-06T03:35:16;12.75;;;7.88;;
51048;SDS011;37084;55.228;36.450;2023-08-06T03:38:17;15.32;;;8.57;;
51048;SDS011;37084;55.228;36.450;2023-08-06T03:41:18;16.50;;;8.35;;
51048;SDS011;37084;55.228;36.450;2023-08-06T03:44:20;14.13;;;7.85;;
51048;SDS011;37084;55.228;36.450;2023-08-06T03:47:21;14.98;;;8.25;;
51048;SDS011;37084;55.228;36.450;2023-08-06T03:50:25;12.68;;;7.68;;
51048;SDS011;37084;55.228;36.450;2023-08-06T03:53:27;11.88;;;8.10;;
51048;SDS011;37084;55.228;36.450;2023-08-06T03:56:29;15.43;;;7.90;;
51048;SDS011;37084;55.228;36.450;2023-08-06T03:59:31;14.85;;;7.72;;
51048;SDS011;37084;55.228;36.450;2023-08-06T04:02:32;13.05;;;8.25;;
51048;SDS011;37084;55.228;36.450;2023-08-06T04:05:35;12.50;;;7.25;;
51048;SDS011;37084;55.228;36.450;2023-08-06T04:08:36;13.15;;;8.20;;
51048;SDS011;37084;55.228;36.450;2023-08-06T04:11:37;16.05;;;8.25;;
51048;SDS011;37084;55.228;36.450;2023-08-06T04:14:38;14.15;;;7.80;;
51048;SDS011;37084;55.228;36.450;2023-08-06T04:17:40;11.95;;;7.55;;
51048;SDS011;37084;55.228;36.450;2023-08-06T04:20:42;13.00;;;7.68;;
51048;SDS011;37084;55.228;36.450;2023-08-06T04:23:46;13.98;;;7.47;;
51048;SDS011;37084;55.228;36.450;2023-08-06T04:26:49;11.77;;;7.20;;
51048;SDS011;37084;55.228;36.450;2023-08-06T04:29:50;11.38;;;7.60;;
51048;SDS011;37084;55.228;36.450;2023-08-06T04:32:52;12.18;;;7.50;;
51048;SDS011;37084;55.228;36.450;2023-08-06T04:35:54;9.35;;;6.80;;
51048;SDS011;37084;55.228;36.450;2023-08-06T04:38:58;11.70;;;7.57;;
51048;SDS011;37084;55.228;36.450;2023-08-06T04:41:59;10.40;;;7.45;;
51048;SDS011;37084;55.228;36.450;2023-08-06T04:45:02;13.93;;;7.93;;
51048;SDS011;37084;55.228;36.450;2023-08-06T04:48:04;12.48;;;7.57;;
51048;SDS011;37084;55.228;36.450;2023-08-06T04:51:05;14.10;;;6.90;;
51048;SDS011;37084;55.228;36.450;2023-08-06T04:54:07;11.77;;;7.20;;
51048;SDS011;37084;55.228;36.450;2023-08-06T04:57:08;10.45;;;7.03;;
51048;SDS011;37084;55.228;36.450;2023-08-06T05:00:09;10.27;;;6.72;;
51048;SDS011;37084;55.228;36.450;2023-08-06T05:03:11;8.85;;;6.65;;
51048;SDS011;37084;55.228;36.450;2023-08-06T05:06:12;11.02;;;7.22;;
51048;SDS011;37084;55.228;36.450;2023-08-06T05:09:13;12.02;;;6.78;;
51048;SDS011;37084;55.228;36.450;2023-08-06T05:12:14;10.57;;;6.65;;
51048;SDS011;37084;55.228;36.450;2023-08-06T05:15:16;14.43;;;6.78;;
51048;SDS011;37084;55.228;36.450;2023-08-06T05:18:17;11.73;;;7.63;;
51048;SDS011;37084;55.228;36.450;2023-08-06T05:21:18;11.73;;;6.55;;
51048;SDS011;37084;55.228;36.450;2023-08-06T05:24:19;13.93;;;6.47;;
51048;SDS011;37084;55.228;36.450;2023-08-06T05:27:20;14.13;;;6.55;;
51048;SDS011;37084;55.228;36.450;2023-08-06T05:30:22;10.48;;;6.50;;
51048;SDS011;37084;55.228;36.450;2023-08-06T05:33:23;8.90;;;6.35;;
51048;SDS011;37084;55.228;36.450;2023-08-06T05:36:26;11.07;;;6.47;;
51048;SDS011;37084;55.228;36.450;2023-08-06T05:39:27;9.07;;;6.53;;
51048;SDS011;37084;55.228;36.450;2023-08-06T05:42:28;10.20;;;6.35;;
51048;SDS011;37084;55.228;36.450;2023-08-06T05:45:30;12.95;;;6.03;;
51048;SDS011;37084;55.228;36.450;2023-08-06T05:48:32;9.90;;;6.22;;
51048;SDS011;37084;55.228;36.450;2023-08-06T05:51:33;7.30;;;5.85;;
51048;SDS011;37084;55.228;36.450;2023-08-06T05:54:34;9.88;;;6.40;;
51048;SDS011;37084;55.228;36.450;2023-08-06T05:57:36;9.18;;;6.32;;
51048;SDS011;37084;55.228;36.450;2023-08-06T06:00:37;10.60;;;6.10;;
51048;SDS011;37084;55.228;36.450;2023-08-06T06:03:38;10.95;;;5.82;;
51048;SDS011;37084;55.228;36.450;2023-08-06T06:06:39;11.45;;;5.82;;
51048;SDS011;37084;55.228;36.450;2023-08-06T06:09:42;9.38;;;5.30;;
51048;SDS011;37084;55.228;36.450;2023-08-06T06:12:43;8.57;;;5.65;;
51048;SDS011;37084;55.228;36.450;2023-08-06T06:15:46;10.90;;;6.15;;
51048;SDS011;37084;55.228;36.450;2023-08-06T06:18:48;8.85;;;5.72;;
51048;SDS011;37084;55.228;36.450;2023-08-06T06:21:50;9.35;;;6.03;;
51048;SDS011;37084;55.228;36.450;2023-08-06T06:24:51;9.10;;;5.68;;
51048;SDS011;37084;55.228;36.450;2023-08-06T06:27:52;8.80;;;6.22;;
51048;SDS011;37084;55.228;36.450;2023-08-06T06:30:54;9.82;;;5.20;;
51048;SDS011;37084;55.228;36.450;2023-08-06T06:34:01;9.77;;;6.25;;
51048;SDS011;37084;55.228;36.450;2023-08-06T06:37:11;10.27;;;6.38;;
51048;SDS011;37084;55.228;36.450;2023-08-06T06:40:13;8.57;;;5.55;;
51048;SDS011;37084;55.228;36.450;2023-08-06T06:43:14;10.27;;;6.05;;
51048;SDS011;37084;55.228;36.450;2023-08-06T06:46:15;7.60;;;5.50;;
51048;SDS011;37084;55.228;36.450;2023-08-06T06:49:16;7.75;;;5.55;;
51048;SDS011;37084;55.228;36.450;2023-08-06T06:52:18;10.25;;;5.38;;
51048;SDS011;37084;55.228;36.450;2023-08-06T06:55:19;9.50;;;5.65;;
51048;SDS011;37084;55.228;36.450;2023-08-06T06:58:21;9.55;;;5.05;;
51048;SDS011;37084;55.228;36.450;2023-08-06T07:01:22;7.30;;;5.40;;
51048;SDS011;37084;55.228;36.450;2023-08-06T07:04:26;9.02;;;5.10;;
51048;SDS011;37084;55.228;36.450;2023-08-06T07:07:28;8.07;;;5.55;;
51048;SDS011;37084;55.228;36.450;2023-08-06T07:10:29;8.02;;;5.30;;
51048;SDS011;37084;55.228;36.450;2023-08-06T07:13:31;7.40;;;5.53;;
51048;SDS011;37084;55.228;36.450;2023-08-06T07:16:33;9.32;;;4.65;;
51048;SDS011;37084;55.228;36.450;2023-08-06T07:19:35;8.88;;;5.03;;
51048;SDS011;37084;55.228;36.450;2023-08-06T07:22:37;8.43;;;4.70;;
51048;SDS011;37084;55.228;36.450;2023-08-06T07:25:39;8.27;;;4.43;;
51048;SDS011;37084;55.228;36.450;2023-08-06T07:28:40;9.18;;;4.60;;
51048;SDS011;37084;55.228;36.450;2023-08-06T07:31:43;7.20;;;4.88;;
51048;SDS011;37084;55.228;36.450;2023-08-06T07:34:44;6.78;;;4.93;;
51048;SDS011;37084;55.228;36.450;2023-08-06T07:37:45;7.53;;;4.28;;
51048;SDS011;37084;55.228;36.450;2023-08-06T07:40:48;7.75;;;4.50;;
51048;SDS011;37084;55.228;36.450;2023-08-06T07:43:49;8.45;;;4.32;;
51048;SDS011;37084;55.228;36.450;2023-08-06T07:46:50;6.40;;;4.57;;
51048;SDS011;37084;55.228;36.450;2023-08-06T07:49:53;8.52;;;4.28;;
51048;SDS011;37084;55.228;36.450;2023-08-06T07:52:54;8.52;;;4.30;;
51048;SDS011;37084;55.228;36.450;2023-08-06T07:55:56;8.35;;;4.00;;
51048;SDS011;37084;55.228;36.450;2023-08-06T07:58:57;5.18;;;4.28;;
51048;SDS011;37084;55.228;36.450;2023-08-06T08:01:59;7.57;;;4.13;;
51048;SDS011;37084;55.228;36.450;2023-08-06T08:05:04;5.00;;;4.43;;
51048;SDS011;37084;55.228;36.450;2023-08-06T08:08:09;9.57;;;6.18;;
51048;SDS011;37084;55.228;36.450;2023-08-06T08:11:10;6.65;;;4.07;;
51048;SDS011;37084;55.228;36.450;2023-08-06T08:14:11;6.93;;;4.55;;
51048;SDS011;37084;55.228;36.450;2023-08-06T08:17:13;8.20;;;5.03;;
51048;SDS011;37084;55.228;36.450;2023-08-06T08:20:15;5.88;;;4.05;;
51048;SDS011;37084;55.228;36.450;2023-08-06T08:23:18;9.18;;;4.07;;
51048;SDS011;37084;55.228;36.450;2023-08-06T08:26:21;6.63;;;3.67;;
51048;SDS011;37084;55.228;36.450;2023-08-06T08:29:28;6.25;;;4.65;;
51048;SDS011;37084;55.228;36.450;2023-08-06T08:32:29;6.53;;;4.32;;
51048;SDS011;37084;55.228;36.450;2023-08-06T08:35:31;8.50;;;4.40;;
51048;SDS011;37084;55.228;36.450;2023-08-06T08:38:32;9.50;;;4.63;;
51048;SDS011;37084;55.228;36.450;2023-08-06T08:41:33;6.22;;;4.50;;
51048;SDS011;37084;55.228;36.450;2023-08-06T08:44:36;8.70;;;5.38;;
51048;SDS011;37084;55.228;36.450;2023-08-06T08:47:40;6.75;;;6.13;;
51048;SDS011;37084;55.228;36.450;2023-08-06T08:50:45;6.22;;;5.10;;
51048;SDS011;37084;55.228;36.450;2023-08-06T08:53:48;7.63;;;4.88;;
51048;SDS011;37084;55.228;36.450;2023-08-06T08:56:52;6.38;;;5.38;;
51048;SDS011;37084;55.228;36.450;2023-08-06T08:59:55;6.43;;;4.82;;
51048;SDS011;37084;55.228;36.450;2023-08-06T09:02:56;8.43;;;4.70;;
51048;SDS011;37084;55.228;36.450;2023-08-06T09:06:01;5.65;;;4.78;;
51048;SDS011;37084;55.228;36.450;2023-08-06T09:09:12;6.00;;;4.95;;
51048;SDS011;37084;55.228;36.450;2023-08-06T09:12:16;6.22;;;4.60;;
51048;SDS011;37084;55.228;36.450;2023-08-06T09:15:18;9.82;;;5.10;;
51048;SDS011;37084;55.228;36.450;2023-08-06T09:18:26;9.02;;;4.90;;
51048;SDS011;37084;55.228;36.450;2023-08-06T09:21:29;9.00;;;4.90;;
51048;SDS011;37084;55.228;36.450;2023-08-06T09:24:30;10.75;;;4.95;;
51048;SDS011;37084;55.228;36.450;2023-08-06T09:27:32;6.45;;;4.80;;
51048;SDS011;37084;55.228;36.450;2023-08-06T09:30:36;6.47;;;4.55;;
51048;SDS011;37084;55.228;36.450;2023-08-06T09:33:38;5.57;;;4.60;;
51048;SDS011;37084;55.228;36.450;2023-08-06T09:36:47;5.03;;;4.28;;
51048;SDS011;37084;55.228;36.450;2023-08-06T09:39:57;7.68;;;4.43;;
51048;SDS011;37084;55.228;36.450;2023-08-06T09:43:00;6.50;;;4.60;;
51048;SDS011;37084;55.228;36.450;2023-08-06T09:46:02;6.72;;;4.47;;
51048;SDS011;37084;55.228;36.450;2023-08-06T09:49:15;6.40;;;4.75;;
51048;SDS011;37084;55.228;36.450;2023-08-06T09:52:20;5.80;;;4.85;;
51048;SDS011;37084;55.228;36.450;2023-08-06T09:55:21;7.25;;;4.53;;
51048;SDS011;37084;55.228;36.450;2023-08-06T09:58:27;5.90;;;4.47;;
51048;SDS011;37084;55.228;36.450;2023-08-06T10:01:28;5.50;;;5.00;;
51048;SDS011;37084;55.228;36.450;2023-08-06T10:04:31;6.15;;;4.75;;
51048;SDS011;37084;55.228;36.450;2023-08-06T10:07:33;7.03;;;4.93;;
51048;SDS011;37084;55.228;36.450;2023-08-06T10:10:34;7.70;;;5.00;;
51048;SDS011;37084;55.228;36.450;2023-08-06T10:13:37;10.73;;;5.05;;
51048;SDS011;37084;55.228;36.450;2023-08-06T10:16:42;6.28;;;5.03;;
51048;SDS011;37084;55.228;36.450;2023-08-06T10:19:46;6.85;;;4.95;;
51048;SDS011;37084;55.228;36.450;2023-08-06T10:26:07;6.45;;;5.22;;
51048;SDS011;37084;55.228;36.450;2023-08-06T10:32:57;6.45;;;5.35;;
51048;SDS011;37084;55.228;36.450;2023-08-06T10:36:01;7.03;;;5.30;;
51048;SDS011;37084;55.228;36.450;2023-08-06T10:39:07;5.68;;;4.93;;
51048;SDS011;37084;55.228;36.450;2023-08-06T10:42:27;6.55;;;5.07;;
51048;SDS011;37084;55.228;36.450;2023-08-06T10:45:30;8.88;;;5.05;;
51048;SDS011;37084;55.228;36.450;2023-08-06T10:48:39;8.52;;;4.72;;
51048;SDS011;37084;55.228;36.450;2023-08-06T10:51:41;7.20;;;4.60;;
51048;SDS011;37084;55.228;36.450;2023-08-06T10:54:44;5.55;;;4.72;;
51048;SDS011;37084;55.228;36.450;2023-08-06T10:57:46;5.93;;;4.72;;
51048;SDS011;37084;55.228;36.450;2023-08-06T11:00:49;7.65;;;4.63;;
51048;SDS011;37084;55.228;36.450;2023-08-06T11:03:52;7.82;;;4.65;;
51048;SDS011;37084;55.228;36.450;2023-08-06T11:06:54;7.47;;;4.13;;
51048;SDS011;37084;55.228;36.450;2023-08-06T11:10:06;6.50;;;4.60;;
51048;SDS011;37084;55.228;36.450;2023-08-06T11:13:09;6.43;;;4.30;;
51048;SDS011;37084;55.228;36.450;2023-08-06T11:16:22;5.28;;;4.30;;
51048;SDS011;37084;55.228;36.450;2023-08-06T11:19:27;5.70;;;4.38;;
51048;SDS011;37084;55.228;36.450;2023-08-06T11:22:31;5.07;;;4.25;;
51048;SDS011;37084;55.228;36.450;2023-08-06T11:25:36;8.25;;;4.93;;
51048;SDS011;37084;55.228;36.450;2023-08-06T11:28:38;6.72;;;4.43;;
51048;SDS011;37084;55.228;36.450;2023-08-06T11:31:41;5.63;;;4.38;;
51048;SDS011;37084;55.228;36.450;2023-08-06T11:34:42;7.78;;;4.50;;
51048;SDS011;37084;55.228;36.450;2023-08-06T11:37:45;6.60;;;4.28;;
51048;SDS011;37084;55.228;36.450;2023-08-06T11:40:47;8.57;;;4.43;;
51048;SDS011;37084;55.228;36.450;2023-08-06T11:43:49;6.63;;;4.03;;
51048;SDS011;37084;55.228;36.450;2023-08-06T11:46:51;7.47;;;4.20;;
51048;SDS011;37084;55.228;36.450;2023-08-06T11:49:56;5.95;;;4.18;;
51048;SDS011;37084;55.228;36.450;2023-08-06T11:52:58;4.78;;;4.20;;
51048;SDS011;37084;55.228;36.450;2023-08-06T11:56:00;5.80;;;3.83;;
51048;SDS011;37084;55.228;36.450;2023-08-06T11:59:02;6.15;;;4.90;;
51048;SDS011;37084;55.228;36.450;2023-08-06T12:02:04;5.25;;;4.05;;
51048;SDS011;37084;55.228;36.450;2023-08-06T12:05:10;4.65;;;4.00;;
51048;SDS011;37084;55.228;36.450;2023-08-06T12:08:14;6.15;;;3.97;;
51048;SDS011;37084;55.228;36.450;2023-08-06T12:11:17;5.15;;;4.35;;
51048;SDS011;37084;55.228;36.450;2023-08-06T12:14:23;4.68;;;4.05;;
51048;SDS011;37084;55.228;36.450;2023-08-06T12:17:25;4.72;;;3.60;;
51048;SDS011;37084;55.228;36.450;2023-08-06T12:20:29;13.77;;;4.65;;
51048;SDS011;37084;55.228;36.450;2023-08-06T12:23:31;6.68;;;4.13;;
51048;SDS011;37084;55.228;36.450;2023-08-06T12:26:35;4.63;;;3.78;;
51048;SDS011;37084;55.228;36.450;2023-08-06T12:29:41;4.95;;;3.35;;
51048;SDS011;37084;55.228;36.450;2023-08-06T12:32:45;4.60;;;4.10;;
51048;SDS011;37084;55.228;36.450;2023-08-06T12:35:47;5.03;;;3.60;;
51048;SDS011;37084;55.228;36.450;2023-08-06T12:38:51;6.65;;;4.32;;
51048;SDS011;37084;55.228;36.450;2023-08-06T12:41:52;5.15;;;4.43;;
51048;SDS011;37084;55.228;36.450;2023-08-06T12:44:58;6.95;;;4.20;;
51048;SDS011;37084;55.228;36.450;2023-08-06T12:47:59;5.25;;;4.18;;
51048;SDS011;37084;55.228;36.450;2023-08-06T12:51:01;5.22;;;4.20;;
51048;SDS011;37084;55.228;36.450;2023-08-06T12:54:04;6.20;;;3.60;;
51048;SDS011;37084;55.228;36.450;2023-08-06T12:57:06;5.53;;;3.95;;
51048;SDS011;37084;55.228;36.450;2023-08-06T13:00:08;6.90;;;3.72;;
51048;SDS011;37084;55.228;36.450;2023-08-06T13:03:09;7.50;;;4.18;;
51048;SDS011;37084;55.228;36.450;2023-08-06T13:06:13;4.70;;;3.92;;
51048;SDS011;37084;55.228;36.450;2023-08-06T13:09:14;6.28;;;3.67;;
51048;SDS011;37084;55.228;36.450;2023-08-06T13:12:16;4.65;;;3.72;;
51048;SDS011;37084;55.228;36.450;2023-08-06T13:15:23;5.18;;;3.75;;
51048;SDS011;37084;55.228;36.450;2023-08-06T13:18:27;8.30;;;3.60;;
51048;SDS011;37084;55.228;36.450;2023-08-06T13:21:33;7.95;;;4.00;;
51048;SDS011;37084;55.228;36.450;2023-08-06T13:24:58;5.90;;;3.78;;
51048;SDS011;37084;55.228;36.450;2023-08-06T13:27:59;3.80;;;3.40;;
51048;SDS011;37084;55.228;36.450;2023-08-06T13:31:01;6.43;;;3.72;;
51048;SDS011;37084;55.228;36.450;2023-08-06T13:34:02;3.85;;;3.20;;
51048;SDS011;37084;55.228;36.450;2023-08-06T13:37:06;4.50;;;3.30;;
51048;SDS011;37084;55.228;36.450;2023-08-06T13:40:08;4.63;;;3.22;;
51048;SDS011;37084;55.228;36.450;2023-08-06T13:43:12;5.00;;;3.40;;
51048;SDS011;37084;55.228;36.450;2023-08-06T13:46:19;4.90;;;3.70;;
51048;SDS011;37084;55.228;36.450;2023-08-06T13:49:22;6.10;;;3.28;;
51048;SDS011;37084;55.228;36.450;2023-08-06T13:52:25;3.80;;;3.38;;
51048;SDS011;37084;55.228;36.450;2023-08-06T13:55:28;5.50;;;3.95;;
51048;SDS011;37084;55.228;36.450;2023-08-06T13:58:29;5.78;;;3.80;;
51048;SDS011;37084;55.228;36.450;2023-08-06T14:04:34;5.40;;;3.55;;
51048;SDS011;37084;55.228;36.450;2023-08-06T14:07:36;6.75;;;3.75;;
51048;SDS011;37084;55.228;36.450;2023-08-06T14:10:39;6.28;;;3.92;;
51048;SDS011;37084;55.228;36.450;2023-08-06T14:13:40;6.35;;;4.65;;
51048;SDS011;37084;55.228;36.450;2023-08-06T14:16:41;5.80;;;4.78;;
51048;SDS011;37084;55.228;36.450;2023-08-06T14:19:43;6.80;;;4.00;;
51048;SDS011;37084;55.228;36.450;2023-08-06T14:22:45;6.15;;;4.35;;
51048;SDS011;37084;55.228;36.450;2023-08-06T14:25:48;5.15;;;4.30;;
51048;SDS011;37084;55.228;36.450;2023-08-06T14:28:49;6.28;;;3.85;;
51048;SDS011;37084;55.228;36.450;2023-08-06T14:31:59;7.55;;;4.90;;
51048;SDS011;37084;55.228;36.450;2023-08-06T14:35:00;7.28;;;4.65;;
51048;SDS011;37084;55.228;36.450;2023-08-06T14:38:03;7.13;;;4.95;;
51048;SDS011;37084;55.228;36.450;2023-08-06T14:41:06;7.00;;;4.50;;
51048;SDS011;37084;55.228;36.450;2023-08-06T14:44:08;7.63;;;4.57;;
51048;SDS011;37084;55.228;36.450;2023-08-06T14:47:13;5.13;;;4.10;;
51048;SDS011;37084;55.228;36.450;2023-08-06T14:50:16;6.15;;;4.60;;
51048;SDS011;37084;55.228;36.450;2023-08-06T14:53:18;5.80;;;4.03;;
51048;SDS011;37084;55.228;36.450;2023-08-06T14:56:23;6.65;;;4.85;;
51048;SDS011;37084;55.228;36.450;2023-08-06T14:59:24;7.80;;;4.68;;
51048;SDS011;37084;55.228;36.450;2023-08-06T15:02:27;5.93;;;4.10;;
51048;SDS011;37084;55.228;36.450;2023-08-06T15:05:29;6.60;;;4.40;;
51048;SDS011;37084;55.228;36.450;2023-08-06T15:08:32;5.68;;;4.03;;
51048;SDS011;37084;55.228;36.450;2023-08-06T15:11:33;6.75;;;3.95;;
51048;SDS011;37084;55.228;36.450;2023-08-06T15:14:37;5.63;;;3.97;;
51048;SDS011;37084;55.228;36.450;2023-08-06T15:17:39;7.60;;;3.97;;
51048;SDS011;37084;55.228;36.450;2023-08-06T15:20:40;6.15;;;4.35;;
51048;SDS011;37084;55.228;36.450;2023-08-06T15:23:42;4.65;;;3.58;;
51048;SDS011;37084;55.228;36.450;2023-08-06T15:26:43;5.22;;;3.65;;
51048;SDS011;37084;55.228;36.450;2023-08-06T15:29:48;9.77;;;3.53;;
51048;SDS011;37084;55.228;36.450;2023-08-06T15:32:50;5.50;;;3.85;;
51048;SDS011;37084;55.228;36.450;2023-08-06T15:35:54;4.97;;;3.30;;
51048;SDS011;37084;55.228;36.450;2023-08-06T15:38:59;7.03;;;3.92;;
51048;SDS011;37084;55.228;36.450;2023-08-06T15:42:01;7.97;;;4.25;;
51048;SDS011;37084;55.228;36.450;2023-08-06T15:48:07;4.47;;;3.67;;
51048;SDS011;37084;55.228;36.450;2023-08-06T15:51:11;6.13;;;4.70;;
51048;SDS011;37084;55.228;36.450;2023-08-06T15:54:13;5.38;;;4.28;;
51048;SDS011;37084;55.228;36.450;2023-08-06T15:57:14;7.68;;;4.50;;
51048;SDS011;37084;55.228;36.450;2023-08-06T16:00:19;9.73;;;4.35;;
51048;SDS011;37084;55.228;36.450;2023-08-06T16:03:20;6.53;;;4.22;;
51048;SDS011;37084;55.228;36.450;2023-08-06T16:06:23;10.82;;;6.53;;
51048;SDS011;37084;55.228;36.450;2023-08-06T16:09:26;7.30;;;4.30;;
51048;SDS011;37084;55.228;36.450;2023-08-06T16:12:28;6.38;;;4.18;;
51048;SDS011;37084;55.228;36.450;2023-08-06T16:15:30;6.82;;;3.75;;
51048;SDS011;37084;55.228;36.450;2023-08-06T16:18:32;5.88;;;4.40;;
51048;SDS011;37084;55.228;36.450;2023-08-06T16:21:33;4.97;;;3.90;;
51048;SDS011;37084;55.228;36.450;2023-08-06T16:24:36;5.90;;;4.22;;
51048;SDS011;37084;55.228;36.450;2023-08-06T16:27:37;5.60;;;4.60;;
51048;SDS011;37084;55.228;36.450;2023-08-06T16:30:46;5.95;;;4.03;;
51048;SDS011;37084;55.228;36.450;2023-08-06T16:33:48;6.90;;;4.00;;
51048;SDS011;37084;55.228;36.450;2023-08-06T16:36:49;6.03;;;4.63;;
51048;SDS011;37084;55.228;36.450;2023-08-06T16:39:51;9.30;;;4.25;;
51048;SDS011;37084;55.228;36.450;2023-08-06T16:42:53;8.40;;;4.43;;
51048;SDS011;37084;55.228;36.450;2023-08-06T16:45:54;7.03;;;4.45;;
51048;SDS011;37084;55.228;36.450;2023-08-06T16:48:55;6.22;;;4.97;;
51048;SDS011;37084;55.228;36.450;2023-08-06T16:51:57;8.65;;;4.75;;
51048;SDS011;37084;55.228;36.450;2023-08-06T16:54:58;7.57;;;5.13;;
51048;SDS011;37084;55.228;36.450;2023-08-06T16:57:59;7.38;;;4.57;;
51048;SDS011;37084;55.228;36.450;2023-08-06T17:01:01;6.13;;;4.78;;
51048;SDS011;37084;55.228;36.450;2023-08-06T17:04:06;7.35;;;5.15;;
51048;SDS011;37084;55.228;36.450;2023-08-06T17:07:08;8.52;;;5.03;;
51048;SDS011;37084;55.228;36.450;2023-08-06T17:10:10;9.73;;;5.00;;
51048;SDS011;37084;55.228;36.450;2023-08-06T17:13:11;9.50;;;5.15;;
51048;SDS011;37084;55.228;36.450;2023-08-06T17:16:14;6.82;;;4.95;;
51048;SDS011;37084;55.228;36.450;2023-08-06T17:19:17;7.68;;;4.85;;
51048;SDS011;37084;55.228;36.450;2023-08-06T17:22:18;10.75;;;5.10;;
51048;SDS011;37084;55.228;36.450;2023-08-06T17:25:20;9.55;;;5.43;;
51048;SDS011;37084;55.228;36.450;2023-08-06T17:28:23;8.48;;;5.40;;
51048;SDS011;37084;55.228;36.450;2023-08-06T17:31:24;8.88;;;5.32;;
51048;SDS011;37084;55.228;36.450;2023-08-06T17:34:27;8.48;;;5.47;;
51048;SDS011;37084;55.228;36.450;2023-08-06T17:37:33;9.40;;;5.57;;
51048;SDS011;37084;55.228;36.450;2023-08-06T17:40:36;9.23;;;5.55;;
51048;SDS011;37084;55.228;36.450;2023-08-06T17:43:37;8.50;;;6.07;;
51048;SDS011;37084;55.228;36.450;2023-08-06T17:46:40;11.35;;;7.13;;
51048;SDS011;37084;55.228;36.450;2023-08-06T17:49:42;10.02;;;6.00;;
51048;SDS011;37084;55.228;36.450;2023-08-06T17:52:46;9.77;;;6.75;;
51048;SDS011;37084;55.228;36.450;2023-08-06T17:58:53;11.52;;;7.18;;
51048;SDS011;37084;55.228;36.450;2023-08-06T18:01:56;13.23;;;8.18;;
51048;SDS011;37084;55.228;36.450;2023-08-06T18:04:58;12.05;;;7.70;;
51048;SDS011;37084;55.228;36.450;2023-08-06T18:08:05;10.35;;;7.53;;
51048;SDS011;37084;55.228;36.450;2023-08-06T18:11:06;11.15;;;7.25;;
51048;SDS011;37084;55.228;36.450;2023-08-06T18:14:13;13.27;;;7.10;;
51048;SDS011;37084;55.228;36.450;2023-08-06T18:17:15;11.95;;;7.03;;
51048;SDS011;37084;55.228;36.450;2023-08-06T18:20:21;10.73;;;7.30;;
51048;SDS011;37084;55.228;36.450;2023-08-06T18:23:26;11.80;;;6.55;;